createdAt,value
2018-12-27T00:00:35.026Z,19.9
2018-12-27T00:01:23.946Z,20.3
2018-12-27T00:02:14.615Z,20.6
2018-12-27T00:03:04.625Z,20.9
2018-12-27T00:04:43.947Z,21.3
2018-12-27T00:05:33.434Z,21.6
2018-12-27T00:06:23.802Z,21.7
2018-12-27T00:07:14.107Z,21.8
2018-12-27T00:08:07.190Z,21.9
2018-12-27T00:08:54.227Z,22.1
2018-12-27T00:09:44.277Z,22.2
2018-12-27T00:10:35.614Z,22.3
2018-12-27T00:11:23.547Z,22.4
2018-12-27T00:12:15.294Z,22.5
2018-12-27T00:13:04.877Z,22.5
2018-12-27T00:13:55.211Z,22.6
2018-12-27T00:14:45.159Z,22.7
2018-12-27T00:33:07.848Z,18.8
2018-12-27T00:33:49.712Z,19.7
2018-12-27T00:34:39.067Z,20.1
2018-12-27T00:35:29.660Z,20.4
2018-12-27T00:36:20.018Z,20.7
2018-12-27T00:37:10.150Z,20.9
2018-12-27T00:38:49.323Z,21.3
2018-12-27T00:39:39.402Z,21.5
2018-12-27T00:40:29.777Z,21.6
2018-12-27T00:41:20.055Z,21.8
2018-12-27T00:42:09.847Z,21.9
2018-12-27T00:43:01.416Z,22
2018-12-27T00:43:49.639Z,22.1
2018-12-27T00:44:39.527Z,22.2
2018-12-27T00:45:30.219Z,22.3
2018-12-27T00:46:18.272Z,22.3
2018-12-27T00:47:09.656Z,22.4
2018-12-27T00:47:59.697Z,22.5
2018-12-27T00:48:50.042Z,22.6
2018-12-27T00:49:40.702Z,22.6
2018-12-27T00:50:30.190Z,22.7
2018-12-27T00:51:20.169Z,22.8
2018-12-27T00:52:10.519Z,22.8
2018-12-27T00:53:00.029Z,22.6
2018-12-27T00:53:50.620Z,22
2018-12-27T00:54:40.159Z,21.5
2018-12-27T00:55:30.767Z,21.2
2018-12-27T00:56:19.774Z,20.9
2018-12-27T00:57:10.967Z,20.6
2018-12-27T00:58:00.846Z,20.4
2018-12-27T00:58:51.481Z,20.2
2018-12-27T00:59:40.942Z,20.1
2018-12-27T01:00:30.154Z,19.9
2018-12-27T01:01:21.306Z,19.8
2018-12-27T01:02:10.199Z,19.7
2018-12-27T01:03:00.769Z,19.6
2018-12-27T01:03:51.434Z,19.4
2018-12-27T01:04:41.204Z,19.3
2018-12-27T01:05:30.598Z,19.1
2018-12-27T01:06:20.924Z,18.9
2018-12-27T01:07:10.748Z,18.8
2018-12-27T01:08:01.626Z,19.1
2018-12-27T01:08:52.252Z,19.7
2018-12-27T01:09:56.967Z,20.1
2018-12-27T01:10:32.336Z,20.5
2018-12-27T01:11:21.846Z,20.7
2018-12-27T01:12:11.891Z,20.9
2018-12-27T01:13:01.696Z,21.2
2018-12-27T01:13:51.600Z,21.4
2018-12-27T01:14:41.771Z,21.5
2018-12-27T01:15:31.553Z,21.7
2018-12-27T01:16:22.538Z,21.8
2018-12-27T01:17:11.515Z,21.9
2018-12-27T01:18:01.603Z,22
2018-12-27T01:18:52.115Z,22.1
2018-12-27T01:19:40.568Z,22.2
2018-12-27T01:20:32.820Z,22.3
2018-12-27T01:21:22.625Z,22.4
2018-12-27T01:22:12.125Z,22.4
2018-12-27T01:23:02.200Z,22.5
2018-12-27T01:23:52.222Z,22.6
2018-12-27T01:24:41.555Z,22.6
2018-12-27T01:25:32.270Z,22.7
2018-12-27T01:26:23.407Z,22.8
2018-12-27T01:27:12.452Z,22.8
2018-12-27T01:28:02.784Z,22.8
2018-12-27T01:28:51.572Z,22.3
2018-12-27T01:29:43.452Z,21.8
2018-12-27T01:30:31.927Z,21.3
2018-12-27T01:31:23.522Z,21.1
2018-12-27T01:32:12.534Z,20.8
2018-12-27T01:33:03.681Z,20.6
2018-12-27T01:33:54.317Z,20.3
2018-12-27T01:34:43.230Z,20.1
2018-12-27T01:35:33.843Z,20
2018-12-27T01:36:23.391Z,19.9
2018-12-27T01:37:13.371Z,19.8
2018-12-27T01:38:02.539Z,19.7
2018-12-27T01:38:54.317Z,19.6
2018-12-27T01:39:43.584Z,19.3
2018-12-27T01:40:33.592Z,19.1
2018-12-27T01:41:23.653Z,19
2018-12-27T01:42:13.960Z,18.8
2018-12-27T01:43:04.026Z,18.8
2018-12-27T01:43:54.651Z,19.4
2018-12-27T01:44:43.848Z,19.9
2018-12-27T01:45:33.640Z,20.3
2018-12-27T01:46:24.766Z,20.6
2018-12-27T01:47:14.366Z,20.8
2018-12-27T01:48:03.818Z,21.1
2018-12-27T01:48:53.861Z,21.3
2018-12-27T01:49:45.016Z,21.1
2018-12-27T01:50:34.860Z,20.5
2018-12-27T01:51:24.598Z,19.6
2018-12-27T01:52:13.525Z,18.8
2018-12-27T01:53:04.461Z,18.8
2018-12-27T01:53:54.850Z,18.8
2018-12-27T01:54:45.092Z,19.4
2018-12-27T01:55:35.395Z,19.9
2018-12-27T01:56:25.210Z,20.4
2018-12-27T01:57:14.285Z,20.7
2018-12-27T01:58:04.753Z,20.9
2018-12-27T01:58:54.885Z,21.2
2018-12-27T01:59:44.599Z,21.4
2018-12-27T02:00:34.389Z,21.6
2018-12-27T02:01:25.538Z,21.7
2018-12-27T02:02:15.605Z,21.9
2018-12-27T02:03:04.554Z,22
2018-12-27T02:03:56.222Z,22.1
2018-12-27T02:04:45.270Z,22.2
2018-12-27T02:05:35.802Z,22.3
2018-12-27T02:06:25.612Z,22.4
2018-12-27T02:07:15.917Z,22.4
2018-12-27T02:08:05.721Z,22.5
2018-12-27T02:08:55.185Z,22.6
2018-12-27T02:09:45.644Z,22.6
2018-12-27T02:10:36.261Z,22.8
2018-12-27T02:11:25.919Z,22.8
2018-12-27T02:12:16.345Z,22.9
2018-12-27T02:13:06.348Z,22.6
2018-12-27T02:13:55.867Z,22.1
2018-12-27T02:14:45.971Z,21.6
2018-12-27T02:15:35.964Z,21.2
2018-12-27T02:16:26.031Z,20.9
2018-12-27T02:17:16.399Z,20.6
2018-12-27T02:18:07.026Z,20.4
2018-12-27T02:18:56.761Z,20.3
2018-12-27T02:19:46.244Z,20.1
2018-12-27T02:20:36.601Z,19.9
2018-12-27T02:21:27.468Z,19.8
2018-12-27T02:22:16.473Z,19.7
2018-12-27T02:23:07.026Z,19.6
2018-12-27T02:23:55.986Z,19.4
2018-12-27T02:24:46.873Z,19.3
2018-12-27T02:25:36.200Z,19.1
2018-12-27T02:26:28.070Z,18.9
2018-12-27T02:27:17.621Z,18.8
2018-12-27T02:28:07.108Z,19.2
2018-12-27T02:28:56.337Z,19.7
2018-12-27T02:29:47.748Z,20.1
2018-12-27T02:30:37.038Z,20.4
2018-12-27T02:31:27.178Z,20.7
2018-12-27T02:32:17.487Z,20.9
2018-12-27T02:33:57.507Z,21.4
2018-12-27T02:34:47.849Z,21.5
2018-12-27T02:35:38.258Z,21.7
2018-12-27T02:36:27.980Z,21.8
2018-12-27T02:37:17.528Z,21.9
2018-12-27T02:38:08.157Z,22
2018-12-27T02:38:57.859Z,22.1
2018-12-27T02:39:49.130Z,22.3
2018-12-27T02:40:38.543Z,22.3
2018-12-27T02:41:27.796Z,22.4
2018-12-27T02:42:18.233Z,22.5
2018-12-27T02:43:07.877Z,22.6
2018-12-27T02:43:58.542Z,22.6
2018-12-27T02:44:47.245Z,22.7
2018-12-27T02:45:38.593Z,22.8
2018-12-27T02:46:27.602Z,22.8
2018-12-27T02:47:18.689Z,22.9
2018-12-27T02:48:09.142Z,22.6
2018-12-27T02:48:58.562Z,22.1
2018-12-27T02:49:47.823Z,21.6
2018-12-27T02:50:38.440Z,21.2
2018-12-27T02:51:27.654Z,20.9
2018-12-27T02:52:18.476Z,20.6
2018-12-27T02:53:08.252Z,20.4
2018-12-27T02:53:58.622Z,20.2
2018-12-27T02:54:48.373Z,20.1
2018-12-27T02:55:39.021Z,19.9
2018-12-27T02:56:29.062Z,19.8
2018-12-27T02:57:19.735Z,19.7
2018-12-27T02:58:09.519Z,19.6
2018-12-27T02:58:58.689Z,19.4
2018-12-27T02:59:49.100Z,19.3
2018-12-27T03:00:38.601Z,19.1
2018-12-27T03:01:27.591Z,18.9
2018-12-27T03:02:19.991Z,18.8
2018-12-27T03:03:10.366Z,19.1
2018-12-27T03:03:59.597Z,19.6
2018-12-27T03:04:48.810Z,20.1
2018-12-27T03:05:40.056Z,20.4
2018-12-27T03:06:28.921Z,20.7
2018-12-27T03:07:20.369Z,20.9
2018-12-27T03:08:59.142Z,21.3
2018-12-27T03:09:50.153Z,21.5
2018-12-27T03:10:40.568Z,21.6
2018-12-27T03:11:28.997Z,21.8
2018-12-27T03:12:20.212Z,21.9
2018-12-27T03:13:08.598Z,21.9
2018-12-27T03:13:59.206Z,22.1
2018-12-27T03:14:50.708Z,22.1
2018-12-27T03:15:40.743Z,22.3
2018-12-27T03:16:30.739Z,22.4
2018-12-27T03:17:20.643Z,22.4
2018-12-27T03:18:10.657Z,22.4
2018-12-27T03:18:59.837Z,22.6
2018-12-27T03:19:50.763Z,22.6
2018-12-27T03:20:40.439Z,22.7
2018-12-27T03:21:30.348Z,22.8
2018-12-27T03:22:20.660Z,22.8
2018-12-27T03:23:10.750Z,22.9
2018-12-27T03:24:00.427Z,22.4
2018-12-27T03:24:50.816Z,21.8
2018-12-27T03:25:39.643Z,21.4
2018-12-27T03:26:31.320Z,21.1
2018-12-27T03:27:20.298Z,20.8
2018-12-27T03:28:10.342Z,20.6
2018-12-27T03:29:00.410Z,20.3
2018-12-27T03:29:50.980Z,20.1
2018-12-27T03:30:40.618Z,20
2018-12-27T03:31:30.881Z,19.9
2018-12-27T03:32:21.319Z,19.8
2018-12-27T03:33:11.286Z,19.7
2018-12-27T03:34:01.129Z,19.6
2018-12-27T03:34:51.270Z,19.4
2018-12-27T03:35:41.088Z,19.2
2018-12-27T03:36:29.998Z,19
2018-12-27T03:37:21.790Z,18.8
2018-12-27T03:38:11.559Z,18.8
2018-12-27T03:39:01.714Z,19.3
2018-12-27T03:39:51.393Z,19.8
2018-12-27T03:40:41.391Z,20.2
2018-12-27T03:41:31.955Z,20.4
2018-12-27T03:42:20.497Z,20.8
2018-12-27T03:43:11.892Z,20.9
2018-12-27T03:44:51.442Z,21.2
2018-12-27T03:45:41.802Z,20.7
2018-12-27T03:46:30.710Z,19.9
2018-12-27T03:47:21.867Z,19.1
2018-12-27T03:48:12.266Z,18.8
2018-12-27T03:49:03.028Z,18.8
2018-12-27T03:49:52.029Z,19.4
2018-12-27T03:50:41.764Z,19.9
2018-12-27T03:51:31.626Z,20.3
2018-12-27T03:52:22.079Z,20.6
2018-12-27T03:53:12.264Z,20.9
2018-12-27T03:54:52.637Z,21.3
2018-12-27T03:55:41.777Z,21.5
2018-12-27T03:56:32.526Z,21.6
2018-12-27T03:57:22.291Z,21.8
2018-12-27T03:58:12.796Z,21.9
2018-12-27T03:59:01.830Z,21.9
2018-12-27T03:59:52.841Z,22.1
2018-12-27T04:00:43.041Z,22.2
2018-12-27T04:01:33.138Z,22.3
2018-12-27T04:02:22.651Z,22.3
2018-12-27T04:03:13.129Z,22.4
2018-12-27T04:04:09.231Z,22.5
2018-12-27T04:04:53.918Z,22.6
2018-12-27T04:05:43.582Z,22.6
2018-12-27T04:06:33.122Z,22.7
2018-12-27T04:07:23.683Z,22.8
2018-12-27T04:08:13.816Z,22.8
2018-12-27T04:09:02.738Z,22.8
2018-12-27T04:09:54.534Z,22.5
2018-12-27T04:10:44.265Z,21.9
2018-12-27T04:11:34.307Z,21.5
2018-12-27T04:13:14.696Z,20.8
2018-12-27T04:14:03.370Z,20.6
2018-12-27T04:14:54.230Z,20.4
2018-12-27T04:15:44.528Z,20.2
2018-12-27T04:16:34.630Z,20.1
2018-12-27T04:17:24.753Z,19.9
2018-12-27T04:18:14.700Z,19.8
2018-12-27T04:19:04.725Z,19.7
2018-12-27T04:19:54.557Z,19.5
2018-12-27T04:20:44.365Z,19.3
2018-12-27T04:21:34.402Z,19.1
2018-12-27T04:22:24.300Z,18.9
2018-12-27T04:23:13.806Z,18.8
2018-12-27T04:24:04.879Z,18.8
2018-12-27T04:25:24.888Z,19.3
2018-12-27T04:25:44.728Z,20
2018-12-27T04:26:34.323Z,20.2
2018-12-27T04:27:24.199Z,20.4
2018-12-27T04:28:14.066Z,20.8
2018-12-27T04:29:04.182Z,20.9
2018-12-27T04:30:45.039Z,21.3
2018-12-27T04:31:35.579Z,21.5
2018-12-27T04:32:25.394Z,21.6
2018-12-27T04:33:15.671Z,21.8
2018-12-27T04:34:13.749Z,21.9
2018-12-27T04:34:56.231Z,22
2018-12-27T04:35:45.674Z,22
2018-12-27T04:36:36.309Z,22.1
2018-12-27T04:37:25.726Z,22.2
2018-12-27T04:38:14.924Z,22.3
2018-12-27T04:39:04.959Z,22.4
2018-12-27T04:39:55.882Z,22.4
2018-12-27T04:40:46.813Z,22.5
2018-12-27T04:41:36.665Z,22.6
2018-12-27T04:42:26.940Z,22.6
2018-12-27T04:43:16.661Z,22.7
2018-12-27T04:44:06.778Z,22.8
2018-12-27T04:44:55.945Z,22.8
2018-12-27T05:02:15.577Z,19.7
2018-12-27T05:03:05.858Z,20.2
2018-12-27T05:03:55.636Z,20.5
2018-12-27T05:04:45.354Z,20.7
2018-12-27T05:05:36.046Z,20.9
2018-12-27T05:07:15.295Z,21.3
2018-12-27T05:08:06.992Z,21.4
2018-12-27T05:08:56.064Z,21.6
2018-12-27T05:09:44.800Z,21.6
2018-12-27T05:10:35.789Z,21.8
2018-12-27T05:11:26.538Z,21.9
2018-12-27T05:12:15.320Z,21.9
2018-12-27T05:13:06.071Z,22.1
2018-12-27T05:13:55.927Z,22.1
2018-12-27T05:14:46.030Z,22.2
2018-12-27T05:15:36.394Z,22.3
2018-12-27T05:16:25.298Z,22.4
2018-12-27T05:17:16.504Z,22.4
2018-12-27T05:18:06.551Z,22.5
2018-12-27T05:18:56.749Z,22.6
2018-12-27T05:19:46.363Z,22.6
2018-12-27T05:20:36.751Z,22.5
2018-12-27T05:21:25.751Z,21.9
2018-12-27T05:22:15.688Z,20.8
2018-12-27T05:23:06.916Z,19.8
2018-12-27T05:23:55.649Z,19.6
2018-12-27T05:24:45.338Z,19.6
2018-12-27T05:25:36.509Z,20.1
2018-12-27T05:26:25.993Z,20.6
2018-12-27T05:27:17.270Z,20.9
2018-12-27T05:28:06.808Z,21.2
2018-12-27T05:28:57.088Z,21.4
2018-12-27T05:29:46.170Z,21.6
2018-12-27T05:30:36.342Z,21.8
2018-12-27T05:31:26.598Z,21.9
2018-12-27T05:32:17.425Z,22
2018-12-27T05:33:06.808Z,22.1
2018-12-27T05:33:57.925Z,22.2
2018-12-27T05:34:47.755Z,22.3
2018-12-27T05:35:37.963Z,22.4
2018-12-27T05:36:26.987Z,22.4
2018-12-27T05:37:19.658Z,22.5
2018-12-27T05:38:07.075Z,22.6
2018-12-27T05:38:57.625Z,22.6
2018-12-27T05:39:48.255Z,22.7
2018-12-27T05:40:37.734Z,22.5
2018-12-27T05:41:28.069Z,21.9
2018-12-27T05:42:17.557Z,21.4
2018-12-27T05:43:58.252Z,20.8
2018-12-27T05:44:48.309Z,20.5
2018-12-27T05:45:37.534Z,20.3
2018-12-27T05:46:27.599Z,20.1
2018-12-27T05:47:18.744Z,19.9
2018-12-27T05:48:08.761Z,19.8
2018-12-27T05:48:58.925Z,19.7
2018-12-27T05:49:48.449Z,19.6
2018-12-27T05:50:38.729Z,19.5
2018-12-27T05:51:28.469Z,19.4
2018-12-27T05:52:18.049Z,19.2
2018-12-27T05:53:08.102Z,19
2018-12-27T05:53:58.410Z,18.8
2018-12-27T05:55:41.371Z,18.9
2018-12-27T05:56:27.221Z,19.6
2018-12-27T05:57:19.056Z,19.9
2018-12-27T05:58:08.166Z,20.3
2018-12-27T05:58:58.253Z,20.6
2018-12-27T05:59:49.171Z,20.8
2018-12-27T06:00:39.161Z,21
2018-12-27T06:01:28.941Z,21.2
2018-12-27T06:02:18.403Z,21.4
2018-12-27T06:03:09.909Z,21.5
2018-12-27T06:03:59.583Z,21.6
2018-12-27T06:04:48.594Z,21.8
2018-12-27T06:05:38.958Z,21.8
2018-12-27T06:06:29.808Z,21.9
2018-12-27T06:07:19.841Z,22
2018-12-27T06:08:09.132Z,22.1
2018-12-27T06:09:00.285Z,22.2
2018-12-27T06:09:49.478Z,22.3
2018-12-27T06:10:39.803Z,22.3
2018-12-27T06:11:29.553Z,22.4
2018-12-27T06:12:20.208Z,22.5
2018-12-27T06:13:10.013Z,22.5
2018-12-27T06:14:00.324Z,22.6
2018-12-27T06:14:48.935Z,22.7
2018-12-27T06:15:40.442Z,22.7
2018-12-27T06:16:29.708Z,22.8
2018-12-27T06:17:19.135Z,22.7
2018-12-27T06:18:10.592Z,22.1
2018-12-27T06:18:59.803Z,21.6
2018-12-27T06:19:50.465Z,21.2
2018-12-27T06:20:39.345Z,20.8
2018-12-27T06:21:29.693Z,20.6
2018-12-27T06:22:19.807Z,20.4
2018-12-27T06:23:10.439Z,20.2
2018-12-27T06:24:01.803Z,20.1
2018-12-27T06:24:51.295Z,19.9
2018-12-27T06:25:41.160Z,19.8
2018-12-27T06:26:31.697Z,19.6
2018-12-27T06:27:20.685Z,19.6
2018-12-27T06:28:09.852Z,19.4
2018-12-27T06:29:01.590Z,19.2
2018-12-27T06:29:50.962Z,19
2018-12-27T06:30:42.019Z,18.8
2018-12-27T06:32:21.899Z,19
2018-12-27T06:33:11.927Z,19.6
2018-12-27T06:34:01.257Z,19.9
2018-12-27T06:34:51.709Z,20.3
2018-12-27T06:35:41.081Z,20.5
2018-12-27T06:36:30.550Z,20.8
2018-12-27T06:37:22.419Z,21
2018-12-27T06:38:11.949Z,21.2
2018-12-27T06:39:02.359Z,21.3
2018-12-27T06:39:52.069Z,21.4
2018-12-27T06:40:41.789Z,21.6
2018-12-27T06:41:32.446Z,21.7
2018-12-27T06:42:22.280Z,21.8
2018-12-27T06:43:11.176Z,21.9
2018-12-27T06:44:02.128Z,22
2018-12-27T06:44:52.141Z,22.1
2018-12-27T06:45:42.480Z,22.1
2018-12-27T06:46:32.284Z,22.3
2018-12-27T06:47:22.314Z,22.3
2018-12-27T06:48:12.601Z,22.3
2018-12-27T06:49:04.268Z,22.4
2018-12-27T06:49:51.603Z,22.5
2018-12-27T06:50:42.465Z,22.6
2018-12-27T06:51:32.133Z,22.6
2018-12-27T06:52:22.546Z,22.6
2018-12-27T06:53:12.771Z,22.6
2018-12-27T06:54:02.530Z,22.5
2018-12-27T06:54:53.731Z,21.9
2018-12-27T06:55:43.181Z,21.4
2018-12-27T06:56:33.170Z,21
2018-12-27T06:57:23.501Z,20.7
2018-12-27T06:58:12.453Z,20.4
2018-12-27T06:59:03.353Z,20.3
2018-12-27T06:59:52.420Z,20.1
2018-12-27T07:00:42.873Z,19.9
2018-12-27T07:01:33.577Z,19.8
2018-12-27T07:02:22.740Z,19.6
2018-12-27T07:03:13.628Z,19.5
2018-12-27T07:04:03.393Z,19.4
2018-12-27T07:04:57.310Z,19.2
2018-12-27T07:05:43.800Z,19.1
2018-12-27T07:06:33.940Z,18.8
2018-12-27T07:08:14.031Z,18.6
2018-12-27T07:09:03.779Z,19.1
2018-12-27T07:09:52.995Z,19.6
2018-12-27T07:10:43.561Z,20
2018-12-27T07:11:33.137Z,20.3
2018-12-27T07:12:23.553Z,20.6
2018-12-27T07:13:13.849Z,20.8
2018-12-27T07:14:04.162Z,21.1
2018-12-27T07:14:53.566Z,21.1
2018-12-27T07:15:44.367Z,20.6
2018-12-27T07:16:33.706Z,19.8
2018-12-27T07:17:23.812Z,18.9
2018-12-27T07:18:13.338Z,18.6
2018-12-27T07:19:07.040Z,18.6
2018-12-27T07:19:54.570Z,19.1
2018-12-27T07:20:46.005Z,19.6
2018-12-27T07:21:34.312Z,20.1
2018-12-27T07:22:24.665Z,20.4
2018-12-27T07:23:15.302Z,20.7
2018-12-27T07:24:04.775Z,20.9
2018-12-27T07:25:45.555Z,21.3
2018-12-27T07:26:34.370Z,21.4
2018-12-27T07:27:23.959Z,21.6
2018-12-27T07:28:15.065Z,21.7
2018-12-27T07:29:05.979Z,21.8
2018-12-27T07:29:54.057Z,21.9
2018-12-27T07:30:45.819Z,22
2018-12-27T07:31:35.445Z,22.1
2018-12-27T07:32:25.057Z,22.1
2018-12-27T07:33:15.129Z,22.3
2018-12-27T07:34:05.445Z,22.3
2018-12-27T07:35:02.672Z,22.4
2018-12-27T07:35:46.105Z,22.4
2018-12-27T07:36:34.777Z,22.4
2018-12-27T07:37:25.646Z,22.5
2018-12-27T07:38:15.990Z,22.6
2018-12-27T07:39:06.409Z,22.6
2018-12-27T07:39:56.676Z,22.7
2018-12-27T07:40:45.914Z,22.5
2018-12-27T07:41:35.897Z,21.9
2018-12-27T07:42:26.292Z,21.4
2018-12-27T07:43:16.049Z,21
2018-12-27T07:44:06.494Z,20.8
2018-12-27T07:44:55.947Z,20.4
2018-12-27T07:45:45.651Z,20.3
2018-12-27T07:46:36.376Z,20.1
2018-12-27T07:47:25.516Z,19.9
2018-12-27T07:48:16.673Z,19.7
2018-12-27T07:49:06.455Z,19.6
2018-12-27T07:49:56.504Z,19.5
2018-12-27T07:50:47.081Z,19.4
2018-12-27T07:51:36.579Z,19.2
2018-12-27T07:52:27.594Z,19
2018-12-27T07:53:17.001Z,18.8
2018-12-27T07:55:47.182Z,19.3
2018-12-27T07:56:37.735Z,19.8
2018-12-27T07:57:27.651Z,20.1
2018-12-27T07:58:16.523Z,20.4
2018-12-27T07:59:07.705Z,20.7
2018-12-27T07:59:57.716Z,20.9
2018-12-27T08:01:37.271Z,21.3
2018-12-27T08:02:26.868Z,21.4
2018-12-27T08:03:17.667Z,21.6
2018-12-27T08:04:07.762Z,21.8
2018-12-27T08:05:05.145Z,21.7
2018-12-27T08:05:47.058Z,21.6
2018-12-27T08:06:37.661Z,21.4
2018-12-27T08:07:27.816Z,21.6
2018-12-27T08:08:18.295Z,21.7
2018-12-27T08:09:07.307Z,21.9
2018-12-27T08:09:57.885Z,22
2018-12-27T08:10:47.150Z,22.2
2018-12-27T08:11:37.704Z,22.3
2018-12-27T08:12:28.367Z,22.4
2018-12-27T08:13:18.077Z,22.4
2018-12-27T08:14:07.370Z,22.6
2018-12-27T08:14:58.777Z,22.6
2018-12-27T08:15:48.929Z,22.5
2018-12-27T08:16:38.912Z,21.9
2018-12-27T08:17:28.397Z,21.4
2018-12-27T08:18:18.406Z,21.1
2018-12-27T08:19:07.954Z,20.7
2018-12-27T08:19:58.869Z,20.4
2018-12-27T08:20:47.750Z,20.3
2018-12-27T08:21:38.115Z,20.1
2018-12-27T08:22:28.946Z,19.9
2018-12-27T08:23:17.679Z,19.8
2018-12-27T08:24:09.414Z,19.6
2018-12-27T08:24:59.139Z,19.5
2018-12-27T08:25:47.808Z,19.4
2018-12-27T08:26:39.876Z,19.3
2018-12-27T08:27:29.020Z,19.1
2018-12-27T08:28:18.661Z,18.8
2018-12-27T08:29:09.169Z,18.6
2018-12-27T08:29:59.441Z,18.6
2018-12-27T08:31:39.906Z,19.4
2018-12-27T08:32:28.841Z,19.9
2018-12-27T08:33:19.198Z,20.4
2018-12-27T08:34:09.228Z,20.8
2018-12-27T08:34:58.988Z,20.9
2018-12-27T08:35:48.519Z,21.2
2018-12-27T08:36:40.451Z,21.4
2018-12-27T08:37:29.958Z,21.5
2018-12-27T08:38:19.492Z,21.6
2018-12-27T08:39:10.105Z,21.8
2018-12-27T08:39:59.025Z,21.9
2018-12-27T08:40:49.353Z,21.9
2018-12-27T08:41:38.912Z,22
2018-12-27T08:42:29.622Z,22.1
2018-12-27T08:43:20.725Z,22.2
2018-12-27T08:44:09.655Z,22.3
2018-12-27T08:44:59.405Z,22.3
2018-12-27T08:45:50.288Z,22.4
2018-12-27T08:46:41.125Z,22.4
2018-12-27T08:47:32.940Z,22.5
2018-12-27T08:48:20.140Z,22.6
2018-12-27T08:49:10.482Z,22.6
2018-12-27T08:50:00.645Z,22.7
2018-12-27T08:50:49.833Z,22.4
2018-12-27T08:51:40.722Z,21.8
2018-12-27T08:52:29.737Z,20.6
2018-12-27T08:53:20.659Z,19.9
2018-12-27T08:54:10.817Z,19.8
2018-12-27T08:55:00.594Z,19.9
2018-12-27T08:55:50.440Z,20.5
2018-12-27T08:56:41.257Z,20.9
2018-12-27T08:57:31.902Z,21.2
2018-12-27T08:58:20.819Z,21.4
2018-12-27T08:59:11.697Z,21.6
2018-12-27T09:00:00.959Z,21.8
2018-12-27T09:00:50.404Z,21.9
2018-12-27T09:16:37.766Z,19.8
2018-12-27T09:17:28.721Z,19.6
2018-12-27T09:18:17.965Z,19.5
2018-12-27T09:19:09.348Z,19.4
2018-12-27T09:19:58.800Z,19.3
2018-12-27T09:20:48.637Z,19.1
2018-12-27T09:21:37.661Z,18.9
2018-12-27T09:23:19.083Z,18.6
2018-12-27T09:24:58.297Z,19.3
2018-12-27T09:25:51.460Z,19.9
2018-12-27T09:26:39.230Z,20.4
2018-12-27T09:27:29.626Z,20.8
2018-12-27T09:28:19.105Z,21
2018-12-27T09:29:09.486Z,21.2
2018-12-27T09:29:59.187Z,21.4
2018-12-27T09:30:48.064Z,21.5
2018-12-27T09:31:40.771Z,21.7
2018-12-27T09:32:30.232Z,21.8
2018-12-27T09:33:19.428Z,21.9
2018-12-27T09:34:09.269Z,21.9
2018-12-27T09:34:58.579Z,22.1
2018-12-27T09:35:49.126Z,22.1
2018-12-27T09:36:40.231Z,22.2
2018-12-27T09:37:29.740Z,22.3
2018-12-27T09:38:20.294Z,22.4
2018-12-27T09:39:10.679Z,22.4
2018-12-27T09:39:59.683Z,22.6
2018-12-27T09:40:50.003Z,22.6
2018-12-27T09:41:40.354Z,22.6
2018-12-27T09:42:31.271Z,22.7
2018-12-27T09:43:19.959Z,22.8
2018-12-27T09:44:10.811Z,22.6
2018-12-27T09:45:01.318Z,21.9
2018-12-27T09:45:49.801Z,21.5
2018-12-27T09:47:30.376Z,20.8
2018-12-27T09:48:20.471Z,20.5
2018-12-27T09:49:10.002Z,20.3
2018-12-27T09:50:00.876Z,20.1
2018-12-27T09:50:50.765Z,19.9
2018-12-27T09:51:41.013Z,19.8
2018-12-27T09:52:31.153Z,19.6
2018-12-27T09:53:20.828Z,19.5
2018-12-27T09:54:10.060Z,19.5
2018-12-27T09:55:00.278Z,19.3
2018-12-27T09:55:51.148Z,19.1
2018-12-27T09:56:41.170Z,18.9
2018-12-27T09:57:31.108Z,18.8
2018-12-27T09:58:20.950Z,18.6
2018-12-27T09:59:10.419Z,18.6
2018-12-27T10:00:00.725Z,19.3
2018-12-27T10:00:50.697Z,19.8
2018-12-27T10:01:41.070Z,20.3
2018-12-27T10:02:30.345Z,20.8
2018-12-27T10:03:20.278Z,21
2018-12-27T10:04:11.104Z,21.2
2018-12-27T10:05:00.164Z,21.3
2018-12-27T10:05:50.955Z,21.5
2018-12-27T10:06:42.080Z,21.6
2018-12-27T10:07:31.225Z,21.8
2018-12-27T10:08:20.000Z,21.8
2018-12-27T10:09:10.635Z,21.9
2018-12-27T10:10:02.281Z,22.1
2018-12-27T10:10:52.037Z,22.1
2018-12-27T10:11:42.408Z,22.2
2018-12-27T10:12:32.397Z,22.3
2018-12-27T10:13:22.410Z,22.3
2018-12-27T10:14:12.513Z,22.4
2018-12-27T10:15:02.743Z,22.5
2018-12-27T10:15:52.096Z,22.5
2018-12-27T10:16:43.182Z,22.6
2018-12-27T10:17:32.682Z,22.6
2018-12-27T10:18:22.513Z,22.8
2018-12-27T10:19:12.247Z,22.8
2018-12-27T10:20:02.514Z,22.3
2018-12-27T10:20:53.277Z,21.7
2018-12-27T10:21:43.254Z,21.3
2018-12-27T10:22:32.884Z,20.9
2018-12-27T10:23:23.326Z,20.6
2018-12-27T10:24:12.116Z,20.4
2018-12-27T10:25:03.230Z,20.2
2018-12-27T10:25:52.991Z,20.1
2018-12-27T10:26:41.957Z,19.9
2018-12-27T10:27:33.654Z,19.8
2018-12-27T10:28:23.553Z,19.6
2018-12-27T10:29:13.551Z,19.5
2018-12-27T10:30:02.681Z,19.4
2018-12-27T10:31:00.841Z,19.1
2018-12-27T10:31:43.498Z,18.9
2018-12-27T10:32:33.426Z,18.8
2018-12-27T10:33:24.079Z,18.6
2018-12-27T10:34:14.084Z,18.6
2018-12-27T10:35:03.943Z,19.1
2018-12-27T10:35:55.038Z,19.8
2018-12-27T10:36:46.449Z,20.2
2018-12-27T10:37:34.043Z,20.6
2018-12-27T10:38:24.908Z,20.9
2018-12-27T10:40:04.220Z,21.3
2018-12-27T10:40:54.260Z,21.4
2018-12-27T10:41:44.885Z,21.6
2018-12-27T10:42:33.813Z,21
2018-12-27T10:43:24.385Z,20.3
2018-12-27T10:44:14.760Z,19.3
2018-12-27T10:45:04.295Z,18.6
2018-12-27T10:45:54.340Z,18.4
2018-12-27T10:46:44.473Z,18.4
2018-12-27T10:47:34.568Z,19.1
2018-12-27T10:48:24.497Z,19.6
2018-12-27T10:49:15.390Z,20.1
2018-12-27T10:50:04.735Z,20.5
2018-12-27T10:50:54.685Z,20.8
2018-12-27T10:51:45.660Z,21.1
2018-12-27T10:52:35.435Z,21.3
2018-12-27T10:53:24.915Z,21.4
2018-12-27T10:54:15.448Z,21.6
2018-12-27T10:55:05.237Z,21.8
2018-12-27T10:55:55.005Z,21.9
2018-12-27T10:56:45.680Z,21.9
2018-12-27T10:57:38.398Z,22.1
2018-12-27T10:58:24.354Z,22.1
2018-12-27T10:59:15.887Z,22.3
2018-12-27T11:00:06.162Z,22.3
2018-12-27T11:00:55.168Z,22.4
2018-12-27T11:01:45.950Z,22.4
2018-12-27T11:02:35.467Z,22.6
2018-12-27T11:03:33.569Z,22.6
2018-12-27T11:04:16.521Z,22.7
2018-12-27T11:05:06.810Z,22.8
2018-12-27T11:05:56.114Z,22.8
2018-12-27T11:06:46.366Z,22.8
2018-12-27T11:07:36.631Z,22.6
2018-12-27T11:08:25.271Z,21.9
2018-12-27T11:09:14.839Z,21.5
2018-12-27T11:10:06.946Z,21
2018-12-27T11:10:55.233Z,20.5
2018-12-27T11:11:46.039Z,20.2
2018-12-27T11:12:36.673Z,19.9
2018-12-27T11:13:26.197Z,19.8
2018-12-27T11:14:16.566Z,19.7
2018-12-27T11:15:06.915Z,19.6
2018-12-27T11:15:56.865Z,19.4
2018-12-27T11:16:46.411Z,19.4
2018-12-27T11:17:37.000Z,19.3
2018-12-27T11:18:28.416Z,19.1
2018-12-27T11:19:16.637Z,18.9
2018-12-27T11:20:57.007Z,18.5
2018-12-27T11:21:47.619Z,18.4
2018-12-27T11:22:37.929Z,18.8
2018-12-27T11:23:27.147Z,19.5
2018-12-27T11:24:17.194Z,19.9
2018-12-27T11:25:07.034Z,20.3
2018-12-27T11:25:57.057Z,20.6
2018-12-27T11:26:48.450Z,20.8
2018-12-27T11:27:37.688Z,21
2018-12-27T11:28:27.179Z,21.2
2018-12-27T11:29:17.259Z,21.3
2018-12-27T11:30:07.654Z,21.5
2018-12-27T11:30:58.347Z,21.6
2018-12-27T11:31:48.261Z,21.8
2018-12-27T11:32:38.065Z,21.9
2018-12-27T11:33:27.309Z,22
2018-12-27T11:34:17.389Z,22.1
2018-12-27T11:35:08.829Z,22.2
2018-12-27T11:36:04.764Z,22.3
2018-12-27T11:36:47.459Z,22.3
2018-12-27T11:37:38.159Z,22.4
2018-12-27T11:38:28.136Z,22.5
2018-12-27T11:39:17.066Z,22.5
2018-12-27T11:40:07.458Z,22.6
2018-12-27T11:40:58.535Z,22.6
2018-12-27T11:41:48.376Z,22.7
2018-12-27T11:42:37.881Z,22.7
2018-12-27T11:43:28.210Z,22.1
2018-12-27T11:44:17.680Z,21.6
2018-12-27T11:45:08.605Z,21.2
2018-12-27T11:45:59.198Z,20.8
2018-12-27T11:46:47.885Z,20.6
2018-12-27T11:47:38.850Z,20.3
2018-12-27T11:48:28.288Z,20.1
2018-12-27T11:49:18.590Z,19.9
2018-12-27T11:50:42.095Z,19.8
2018-12-27T11:51:31.972Z,19.6
2018-12-27T11:52:23.262Z,19.5
2018-12-27T11:53:12.545Z,19.4
2018-12-27T11:54:02.320Z,19.2
2018-12-27T11:54:52.730Z,19
2018-12-27T11:55:42.985Z,18.8
2018-12-27T11:57:21.985Z,18.6
2018-12-27T11:58:13.690Z,18.4
2018-12-27T11:59:02.407Z,18.3
2018-12-27T11:59:52.464Z,18.4
2018-12-27T12:00:43.052Z,19.1
2018-12-27T12:01:33.667Z,19.6
2018-12-27T12:02:23.193Z,19.9
2018-12-27T12:03:12.224Z,20.3
2018-12-27T12:04:03.264Z,20.6
2018-12-27T12:04:53.574Z,20.8
2018-12-27T12:05:42.691Z,21
2018-12-27T12:06:33.236Z,21.2
2018-12-27T12:07:24.049Z,21.3
2018-12-27T12:08:13.658Z,21.5
2018-12-27T12:09:03.077Z,21.6
2018-12-27T12:09:53.191Z,21.8
2018-12-27T12:11:34.176Z,21.9
2018-12-27T12:12:24.894Z,22.1
2018-12-27T12:13:15.727Z,22.1
2018-12-27T12:14:04.643Z,22.2
2018-12-27T12:14:54.451Z,21.7
2018-12-27T12:16:34.586Z,20.8
2018-12-27T12:17:24.911Z,20.4
2018-12-27T12:18:15.270Z,20.1
2018-12-27T12:19:04.243Z,19.9